Time;durP1;ratioP1;P1;durP2;ratioP2;P2;SDS_P1;SDS_P2;PMS_P1;PMS_P2;Temp;Humidity;BMP_temperature;BMP_pressure;BME280_temperature;BME280_humidity;BME280_pressure;Samples;Min_cycle;Max_cycle;Signal;HPM_P1;HPM_P2
2022/06/22 00:00:39;;;;;;;;;;;;;;;25.22;62.01;97455.88;5031796;28;20026;-81
2022/06/22 00:03:06;;;;;;;;;;;;;;;25.12;63.24;97456.53;5032191;28;20947;-80
2022/06/22 00:05:36;;;;;;;;;;;;;;;25.40;62.63;97464.34;5032435;28;20044;-81
2022/06/22 00:08:05;;;;;;;;;;;;;;;25.63;61.92;97467.00;5035243;28;20392;-81
2022/06/22 00:10:32;;;;;;;;;;;;;;;25.70;61.36;97467.09;5035199;28;19983;-81
2022/06/22 00:13:00;;;;;;;;;;;;;;;25.51;61.75;97470.78;5025256;28;19989;-79
2022/06/22 00:15:32;;;;;;;;;;;;;;;25.57;62.05;97458.34;5033467;28;20020;-80
2022/06/22 00:17:59;;;;;;;;;;;;;;;25.44;62.55;97454.22;5032961;28;20427;-80
2022/06/22 00:20:27;;;;;;;;;;;;;;;25.55;62.11;97438.78;5036091;28;19934;-81
2022/06/22 00:22:57;;;;;;;;;;;;;;;25.15;63.84;97436.69;5030579;28;20019;-81
2022/06/22 00:25:27;;;;;;;;;;;;;;;25.10;64.11;97436.19;5037444;28;20311;-80
2022/06/22 00:27:54;;;;;;;;;;;;;;;25.26;63.98;97445.00;5034445;28;20019;-80
2022/06/22 00:30:22;;;;;;;;;;;;;;;25.35;63.50;97440.06;5014226;28;19948;-81
2022/06/22 00:33:10;;;;;;;;;;;;;;;24.83;64.85;97432.69;5028406;28;19933;-80
2022/06/22 00:35:42;;;;;;;;;;;;;;;24.94;66.14;97438.31;5028811;28;20172;-80
2022/06/22 00:38:13;;;;;;;;;;;;;;;25.26;64.38;97453.22;5033081;28;19933;-80
2022/06/22 00:40:40;;;;;;;;;;;;;;;25.46;62.96;97454.66;5026949;28;20767;-81
2022/06/22 00:43:06;;;;;;;;;;;;;;;25.54;62.60;97442.69;5006973;28;19929;-81
2022/06/22 00:45:35;;;;;;;;;;;;;;;25.25;62.88;97441.47;5032590;28;20254;-80
2022/06/22 00:48:03;;;;;;;;;;;;;;;24.96;64.28;97442.25;5034734;28;19971;-80
2022/06/22 00:50:37;;;;;;;;;;;;;;;24.82;65.76;97444.00;5033319;28;19929;-82
2022/06/22 00:53:05;;;;;;;;;;;;;;;25.03;64.76;97438.84;5025234;28;19929;-80
2022/06/22 00:55:35;;;;;;;;;;;;;;;25.05;64.21;97442.78;5032505;28;20027;-81
2022/06/22 00:58:04;;;;;;;;;;;;;;;24.76;64.91;97424.34;5023964;28;19925;-80
2022/06/22 01:00:33;;;;;;;;;;;;;;;24.44;65.84;97432.03;5028355;28;20380;-81
2022/06/22 01:03:03;;;;;;;;;;;;;;;24.75;65.74;97428.25;5030687;28;19999;-81
2022/06/22 01:05:33;;;;;;;;;;;;;;;24.56;65.60;97426.38;5012760;28;19968;-81
2022/06/22 01:08:06;;;;;;;;;;;;;;;25.06;64.41;97424.44;5033408;28;20006;-81
2022/06/22 01:10:37;;;;;;;;;;;;;;;24.93;64.05;97420.34;5035114;28;19955;-81
2022/06/22 01:13:07;;;;;;;;;;;;;;;25.06;63.68;97405.31;5031081;28;19932;-81
2022/06/22 01:15:36;;;;;;;;;;;;;;;24.37;66.74;97410.09;5031628;28;19932;-81
2022/06/22 01:18:06;;;;;;;;;;;;;;;24.28;68.44;97403.28;5028809;28;20384;-80
2022/06/22 01:20:36;;;;;;;;;;;;;;;24.75;66.43;97389.22;5039172;28;19929;-80
2022/06/22 01:23:21;;;;;;;;;;;;;;;24.73;66.22;97382.19;5037947;28;20084;-81
2022/06/22 01:25:54;;;;;;;;;;;;;;;24.85;66.23;97388.63;5022305;28;20364;-81
2022/06/22 01:28:22;;;;;;;;;;;;;;;24.93;65.68;97379.38;5023240;28;20474;-82
2022/06/22 01:30:51;;;;;;;;;;;;;;;24.63;66.87;97382.03;5032765;28;20422;-81
2022/06/22 01:33:20;;;;;;;;;;;;;;;24.59;67.77;97370.25;5037347;28;20048;-80
2022/06/22 01:35:51;;;;;;;;;;;;;;;24.65;67.12;97375.03;5044545;28;19964;-81
2022/06/22 01:38:22;;;;;;;;;;;;;;;24.88;66.84;97371.50;5031105;28;19964;-81
2022/06/22 01:40:51;;;;;;;;;;;;;;;24.94;66.46;97359.09;5043250;28;20579;-82
2022/06/22 01:43:22;;;;;;;;;;;;;;;25.08;65.66;97362.00;5041370;28;20007;-81
2022/06/22 01:45:52;;;;;;;;;;;;;;;25.24;64.73;97359.88;5028934;28;20241;-81
2022/06/22 01:48:20;;;;;;;;;;;;;;;25.31;64.48;97365.44;5034711;28;20020;-81
2022/06/22 01:50:49;;;;;;;;;;;;;;;25.29;64.67;97365.00;5041457;28;19931;-79
2022/06/22 01:53:20;;;;;;;;;;;;;;;25.29;65.21;97361.47;5011318;28;19968;-81
2022/06/22 01:55:54;;;;;;;;;;;;;;;25.29;65.51;97375.94;5034130;28;20556;-81
2022/06/22 01:58:37;;;;;;;;;;;;;;;25.33;65.52;97365.06;5033195;28;19979;-81
2022/06/22 02:01:14;;;;;;;;;;;;;;;25.36;65.46;97364.31;5029675;28;19928;-81
2022/06/22 02:03:44;;;;;;;;;;;;;;;25.34;65.54;97361.97;5029405;28;19931;-80
2022/06/22 02:08:56;;;;;;;;;;;;;;;25.01;67.43;97364.63;5020970;28;19996;-81
2022/06/22 02:11:24;;;;;;;;;;;;;;;24.53;71.36;97361.59;5039932;28;19983;-81
2022/06/22 02:13:54;;;;;;;;;;;;;;;24.58;71.74;97364.00;5041960;28;20106;-81
2022/06/22 02:16:24;;;;;;;;;;;;;;;24.76;71.46;97363.50;5023101;28;19929;-80
2022/06/22 02:18:52;;;;;;;;;;;;;;;24.97;70.07;97381.00;5041668;28;20008;-80
2022/06/22 02:21:20;;;;;;;;;;;;;;;25.06;70.22;97383.47;5039860;28;20007;-81
2022/06/22 02:23:50;;;;;;;;;;;;;;;25.14;69.93;97385.13;5011268;28;20223;-81
2022/06/22 02:26:20;;;;;;;;;;;;;;;25.13;69.62;97389.78;5029243;28;20378;-81
2022/06/22 02:28:46;;;;;;;;;;;;;;;24.94;69.77;97380.94;5039262;28;19936;-80
2022/06/22 02:31:13;;;;;;;;;;;;;;;25.04;69.38;97391.22;5028453;28;19924;-80
2022/06/22 02:33:44;;;;;;;;;;;;;;;24.57;68.74;97397.91;5031190;28;19929;-80
2022/06/22 02:36:12;;;;;;;;;;;;;;;24.03;72.31;97397.38;5016249;28;20360;-79
2022/06/22 02:38:39;;;;;;;;;;;;;;;23.85;74.19;97394.31;5026858;28;20384;-80
2022/06/22 02:46:45;;;;;;;;;;;;;;;24.26;73.03;97375.59;5038626;28;20051;-79
2022/06/22 02:49:15;;;;;;;;;;;;;;;24.51;71.04;97376.78;5024321;28;20401;-80
2022/06/22 02:51:44;;;;;;;;;;;;;;;24.53;69.57;97367.06;5037878;28;20455;-82
2022/06/22 02:54:16;;;;;;;;;;;;;;;24.16;70.13;97375.03;5024726;28;20037;-80
2022/06/22 02:56:43;;;;;;;;;;;;;;;24.47;69.90;97378.66;5030003;28;20396;-80
2022/06/22 02:59:10;;;;;;;;;;;;;;;24.50;69.03;97378.72;5027901;28;19929;-80
2022/06/22 03:01:38;;;;;;;;;;;;;;;24.74;67.95;97382.97;5024179;28;19952;-81
2022/06/22 03:04:08;;;;;;;;;;;;;;;24.81;67.43;97374.91;5036729;28;19952;-80
2022/06/22 03:06:37;;;;;;;;;;;;;;;24.79;66.97;97371.72;5038967;28;19983;-81
2022/06/22 03:09:05;;;;;;;;;;;;;;;24.25;68.87;97363.88;5035319;28;20432;-83
2022/06/22 03:11:32;;;;;;;;;;;;;;;23.64;73.20;97356.53;5041259;28;19932;-82
2022/06/22 03:14:06;;;;;;;;;;;;;;;23.82;74.15;97364.25;5040625;28;20467;-84
2022/06/22 03:16:34;;;;;;;;;;;;;;;24.03;73.33;97359.97;5016805;28;20013;-84
2022/06/22 03:19:00;;;;;;;;;;;;;;;;;;5015330;28;19928;-82
2022/06/22 03:21:28;;;;;;;;;;;;;;;24.44;70.21;97352.09;5038292;28;19931;-81
2022/06/22 03:23:58;;;;;;;;;;;;;;;24.49;69.80;97344.38;5035115;28;19931;-81
2022/06/22 03:26:26;;;;;;;;;;;;;;;24.67;68.68;97356.34;5027168;28;19952;-81
2022/06/22 03:29:00;;;;;;;;;;;;;;;24.76;67.83;97355.31;5032526;28;20012;-81
2022/06/22 03:31:28;;;;;;;;;;;;;;;24.52;68.51;97354.56;5018877;28;19925;-81
2022/06/22 03:33:58;;;;;;;;;;;;;;;24.59;68.58;97356.59;5017859;28;20303;-81
2022/06/22 03:36:30;;;;;;;;;;;;;;;24.75;67.94;97361.91;5031067;28;19925;-80
2022/06/22 03:39:01;;;;;;;;;;;;;;;24.82;67.36;97370.25;5014197;28;19925;-81
2022/06/22 03:41:29;;;;;;;;;;;;;;;24.82;67.32;97375.72;5035851;28;20004;-81
2022/06/22 03:43:58;;;;;;;;;;;;;;;24.59;67.18;97384.72;5024963;28;20673;-81
2022/06/22 03:46:27;;;;;;;;;;;;;;;24.35;67.88;97387.84;5032892;28;20023;-80
2022/06/22 03:48:58;;;;;;;;;;;;;;;24.58;67.95;97387.78;5030177;28;20055;-81
2022/06/22 03:51:27;;;;;;;;;;;;;;;24.72;67.20;97385.28;5008216;28;19975;-82
2022/06/22 03:53:58;;;;;;;;;;;;;;;24.74;66.78;97396.63;5030134;28;20454;-82
2022/06/22 03:56:29;;;;;;;;;;;;;;;24.75;67.02;97390.00;5022577;28;19971;-81
2022/06/22 03:58:55;;;;;;;;;;;;;;;24.90;65.95;97383.63;5030163;28;20039;-82
2022/06/22 04:01:22;;;;;;;;;;;;;;;24.91;65.72;97387.16;5036610;28;20403;-81
2022/06/22 04:03:49;;;;;;;;;;;;;;;24.92;65.77;97400.44;5017600;28;20023;-81
2022/06/22 04:06:20;;;;;;;;;;;;;;;25.01;65.10;97394.69;5038050;28;20352;-81
2022/06/22 04:08:46;;;;;;;;;;;;;;;24.83;65.78;97388.19;5037383;28;19925;-81
2022/06/22 04:11:15;;;;;;;;;;;;;;;24.58;67.36;97383.13;5033547;28;19999;-81
2022/06/22 04:13:44;;;;;;;;;;;;;;;24.38;69.45;97376.19;5041379;28;19964;-81
2022/06/22 04:16:14;;;;;;;;;;;;;;;24.32;69.80;97380.38;5031753;28;20012;-80
2022/06/22 04:18:43;;;;;;;;;;;;;;;24.04;71.54;97390.78;5020915;28;19924;-82
2022/06/22 04:21:12;;;;;;;;;;;;;;;24.11;72.32;97390.91;5020812;28;19925;-81
2022/06/22 04:23:41;;;;;;;;;;;;;;;24.28;72.19;97406.81;5035909;28;20573;-81
2022/06/22 04:26:11;;;;;;;;;;;;;;;24.52;70.98;97408.38;5035109;28;19995;-81
2022/06/22 04:28:39;;;;;;;;;;;;;;;24.64;69.93;97406.22;5032231;28;19967;-82
2022/06/22 04:31:08;;;;;;;;;;;;;;;24.65;69.50;97399.63;5030793;28;19936;-81
2022/06/22 04:33:39;;;;;;;;;;;;;;;24.60;69.84;97399.91;5037954;28;20020;-80
2022/06/22 04:36:07;;;;;;;;;;;;;;;24.73;69.26;97394.28;5037062;28;19929;-81
2022/06/22 04:38:36;;;;;;;;;;;;;;;24.69;69.48;97400.47;5008798;28;20028;-81
2022/06/22 04:41:07;;;;;;;;;;;;;;;24.37;71.35;97390.19;5027380;28;20291;-83
2022/06/22 04:43:34;;;;;;;;;;;;;;;24.35;70.72;97392.50;5034268;28;19940;-82
2022/06/22 04:46:00;;;;;;;;;;;;;;;24.36;72.02;97383.13;5033604;28;19931;-82
2022/06/22 04:48:30;;;;;;;;;;;;;;;24.33;72.70;97400.25;5032213;28;19929;-82
2022/06/22 04:50:59;;;;;;;;;;;;;;;23.94;75.62;97399.53;5034186;28;19972;-81
2022/06/22 04:53:29;;;;;;;;;;;;;;;23.70;78.84;97394.41;5011637;28;19974;-81
2022/06/22 04:55:57;;;;;;;;;;;;;;;23.80;78.96;97410.19;5027449;28;19971;-81
2022/06/22 04:58:34;;;;;;;;;;;;;;;23.78;79.55;97421.44;5016857;28;20016;-82
2022/06/22 05:01:01;;;;;;;;;;;;;;;23.19;83.25;97410.88;5028064;28;20065;-82
2022/06/22 05:03:30;;;;;;;;;;;;;;;22.97;85.90;97419.72;5017858;28;19925;-81
2022/06/22 05:05:59;;;;;;;;;;;;;;;22.29;90.45;97425.47;5038068;28;19956;-80
2022/06/22 05:08:28;;;;;;;;;;;;;;;22.21;91.86;97426.44;5020357;28;19925;-83
2022/06/22 05:10:57;;;;;;;;;;;;;;;22.25;92.48;97413.69;5033840;28;19960;-81
2022/06/22 05:13:25;;;;;;;;;;;;;;;22.29;91.82;97420.03;5010957;28;20589;-80
2022/06/22 05:15:53;;;;;;;;;;;;;;;22.47;90.85;97417.72;5012999;28;20665;-81
2022/06/22 05:18:23;;;;;;;;;;;;;;;22.33;91.58;97415.47;5032782;28;20772;-81
2022/06/22 05:20:54;;;;;;;;;;;;;;;21.89;96.15;97422.09;5023731;28;19972;-81
2022/06/22 05:23:22;;;;;;;;;;;;;;;21.75;98.32;97416.25;5033022;28;20085;-81
2022/06/22 05:25:51;;;;;;;;;;;;;;;21.64;99.67;97417.88;5027283;28;20224;-81
2022/06/22 05:28:18;;;;;;;;;;;;;;;22.24;95.50;97408.63;5033354;28;19931;-80
2022/06/22 05:30:49;;;;;;;;;;;;;;;22.15;95.61;97414.25;5033219;28;20000;-81
2022/06/22 05:33:17;;;;;;;;;;;;;;;21.97;96.83;97413.75;5018348;28;19925;-82
2022/06/22 05:35:46;;;;;;;;;;;;;;;22.00;97.04;97413.06;5010214;28;19925;-80
2022/06/22 05:38:15;;;;;;;;;;;;;;;21.98;97.57;97401.75;5023588;28;20043;-80
2022/06/22 05:40:42;;;;;;;;;;;;;;;22.47;94.24;97404.13;5033187;28;19994;-81
2022/06/22 05:43:09;;;;;;;;;;;;;;;22.70;92.03;97396.16;5033169;28;19929;-81
2022/06/22 05:45:38;;;;;;;;;;;;;;;23.04;88.49;97396.16;5032183;28;20032;-81
2022/06/22 05:48:05;;;;;;;;;;;;;;;22.78;91.56;97406.06;5015131;28;20451;-82
2022/06/22 05:50:38;;;;;;;;;;;;;;;22.52;92.07;97407.41;5035288;28;19935;-80
2022/06/22 05:53:09;;;;;;;;;;;;;;;22.75;90.20;97402.09;5019580;28;19932;-81
2022/06/22 05:55:43;;;;;;;;;;;;;;;22.55;92.46;97400.44;5010513;28;20035;-80
2022/06/22 05:58:13;;;;;;;;;;;;;;;22.78;90.22;97403.31;5036918;28;19928;-81
2022/06/22 06:00:44;;;;;;;;;;;;;;;22.95;89.50;97409.19;5020796;28;20423;-81
2022/06/22 06:03:17;;;;;;;;;;;;;;;22.79;91.20;97411.16;5039489;28;19932;-80
2022/06/22 06:05:46;;;;;;;;;;;;;;;22.41;92.08;97419.94;5033067;28;20356;-81
2022/06/22 06:08:18;;;;;;;;;;;;;;;22.21;94.59;97422.94;5034265;28;19971;-81
2022/06/22 06:10:46;;;;;;;;;;;;;;;22.24;94.75;97409.41;5033856;28;20400;-84
2022/06/22 06:13:22;;;;;;;;;;;;;;;22.71;91.66;97397.75;5033134;28;20024;-81
2022/06/22 06:15:52;;;;;;;;;;;;;;;22.92;91.23;97398.22;5032640;28;20424;-80
2022/06/22 06:18:21;;;;;;;;;;;;;;;23.05;89.61;97391.50;5038985;28;20176;-80
2022/06/22 06:20:50;;;;;;;;;;;;;;;23.29;87.25;97390.44;5031202;28;20416;-80
2022/06/22 06:23:20;;;;;;;;;;;;;;;23.12;88.32;97397.09;5033847;28;19991;-80
2022/06/22 06:28:39;;;;;;;;;;;;;;;23.15;86.12;97390.94;5033426;28;21328;-81
2022/06/22 06:31:07;;;;;;;;;;;;;;;23.11;85.10;97390.09;5029598;28;20016;-81
2022/06/22 06:33:34;;;;;;;;;;;;;;;22.82;87.30;97388.66;5038512;28;19932;-81
2022/06/22 06:36:05;;;;;;;;;;;;;;;22.44;88.61;97394.75;5026819;28;20015;-81
2022/06/22 06:38:35;;;;;;;;;;;;;;;22.33;89.01;97407.31;5016690;28;19986;-81
2022/06/22 06:41:06;;;;;;;;;;;;;;;22.63;88.30;97412.28;5040307;28;19928;-81
2022/06/22 06:43:37;;;;;;;;;;;;;;;22.79;88.88;97413.09;5037686;28;19929;-81
2022/06/22 06:46:05;;;;;;;;;;;;;;;22.80;88.13;97409.22;5038658;28;19932;-81
2022/06/22 06:48:33;;;;;;;;;;;;;;;22.94;87.58;97407.59;5022427;28;19959;-82
2022/06/22 06:51:02;;;;;;;;;;;;;;;22.64;90.04;97411.94;5027392;28;20767;-82
2022/06/22 06:53:30;;;;;;;;;;;;;;;22.68;90.45;97410.13;5027037;28;19933;-81
2022/06/22 06:55:59;;;;;;;;;;;;;;;22.87;89.12;97403.94;5028154;28;20160;-81
2022/06/22 06:58:31;;;;;;;;;;;;;;;22.79;90.21;97394.81;5030019;28;19925;-80
2022/06/22 07:00:58;;;;;;;;;;;;;;;22.99;88.27;97392.94;5035713;28;19931;-81
2022/06/22 07:03:27;;;;;;;;;;;;;;;22.99;88.54;97388.25;5027662;28;20102;-81
2022/06/22 07:05:53;;;;;;;;;;;;;;;23.05;89.01;97383.34;5033121;28;19982;-81
2022/06/22 07:08:21;;;;;;;;;;;;;;;22.97;89.85;97387.03;5037339;28;20433;-82
2022/06/22 07:10:50;;;;;;;;;;;;;;;23.19;88.07;97386.34;5022269;28;19978;-82
2022/06/22 07:13:20;;;;;;;;;;;;;;;23.27;89.09;97388.09;5035962;28;20187;-81
2022/06/22 07:15:51;;;;;;;;;;;;;;;23.16;89.31;97392.53;5031224;28;20065;-81
2022/06/22 07:18:21;;;;;;;;;;;;;;;22.98;90.37;97381.25;5035379;28;19939;-80
2022/06/22 07:20:49;;;;;;;;;;;;;;;23.24;89.68;97385.31;5038775;28;19948;-83
2022/06/22 07:23:20;;;;;;;;;;;;;;;23.51;87.99;97387.03;5038013;28;19924;-81
2022/06/22 07:25:49;;;;;;;;;;;;;;;23.73;87.68;97399.16;5018002;28;19990;-80
2022/06/22 07:28:18;;;;;;;;;;;;;;;23.67;87.54;97391.25;5028893;28;19929;-81
2022/06/22 07:30:48;;;;;;;;;;;;;;;23.73;88.56;97388.25;5014478;28;19979;-82
2022/06/22 07:33:18;;;;;;;;;;;;;;;23.60;89.20;97382.94;5028212;28;20060;-81
2022/06/22 07:35:48;;;;;;;;;;;;;;;23.87;88.31;97385.78;5034077;28;20024;-81
2022/06/22 07:38:20;;;;;;;;;;;;;;;23.62;89.64;97382.56;5030807;28;19928;-81
2022/06/22 07:43:29;;;;;;;;;;;;;;;23.51;92.78;97376.16;5032574;28;20614;-81
2022/06/22 07:45:55;;;;;;;;;;;;;;;23.48;94.71;97385.84;5035876;28;20019;-80
2022/06/22 07:48:24;;;;;;;;;;;;;;;23.51;94.08;97381.59;5031854;28;20032;-81
2022/06/22 07:50:52;;;;;;;;;;;;;;;24.64;85.48;97391.78;5026931;28;19947;-81
2022/06/22 07:53:19;;;;;;;;;;;;;;;25.21;81.46;97398.88;5014581;28;19929;-80
2022/06/22 07:55:48;;;;;;;;;;;;;;;25.04;84.52;97402.16;5035084;28;19964;-79
2022/06/22 07:58:18;;;;;;;;;;;;;;;24.33;89.48;97411.94;5012022;28;20016;-79
2022/06/22 08:00:46;;;;;;;;;;;;;;;24.27;91.50;97404.44;5018578;28;19925;-79
2022/06/22 08:03:19;;;;;;;;;;;;;;;24.36;92.60;97394.84;5031983;28;20019;-81
2022/06/22 08:05:49;;;;;;;;;;;;;;;24.42;92.59;97400.78;5034157;28;20015;-80
2022/06/22 08:08:19;;;;;;;;;;;;;;;24.51;92.96;97401.34;5035509;28;19955;-79
2022/06/22 08:10:48;;;;;;;;;;;;;;;24.33;94.45;97409.22;5033971;28;19925;-81
2022/06/22 08:13:18;;;;;;;;;;;;;;;24.24;96.46;97411.41;5034474;28;19928;-81
2022/06/22 08:15:48;;;;;;;;;;;;;;;24.47;94.32;97403.22;5014561;28;19935;-80
2022/06/22 08:18:14;;;;;;;;;;;;;;;24.54;94.01;97401.38;5034434;28;19940;-81
2022/06/22 08:20:43;;;;;;;;;;;;;;;24.76;92.41;97401.72;5035307;28;19931;-80
2022/06/22 08:23:14;;;;;;;;;;;;;;;24.75;94.50;97395.47;5036910;28;19936;-80
2022/06/22 08:25:44;;;;;;;;;;;;;;;24.80;94.16;97399.81;5013587;28;20605;-80
2022/06/22 08:28:13;;;;;;;;;;;;;;;24.57;97.66;97400.66;5029830;28;20688;-81
2022/06/22 08:30:40;;;;;;;;;;;;;;;24.59;98.75;97403.81;5025940;28;20193;-81
2022/06/22 08:33:07;;;;;;;;;;;;;;;24.57;98.32;97392.47;5029966;28;20023;-81
2022/06/22 08:35:36;;;;;;;;;;;;;;;24.97;95.12;97394.66;5037864;28;19928;-81
2022/06/22 08:38:04;;;;;;;;;;;;;;;25.52;91.05;97400.47;5010914;28;19925;-82
2022/06/22 08:40:37;;;;;;;;;;;;;;;25.18;93.37;97396.88;5029430;28;20460;-81
2022/06/22 08:43:06;;;;;;;;;;;;;;;25.32;91.92;97396.28;5027667;28;20633;-80
2022/06/22 08:45:38;;;;;;;;;;;;;;;25.13;94.48;97394.47;5031966;28;20194;-81
2022/06/22 08:48:14;;;;;;;;;;;;;;;25.32;94.89;97396.28;5001466;28;19959;-83
2022/06/22 08:50:50;;;;;;;;;;;;;;;25.48;93.16;97394.94;5030202;28;20308;-79
2022/06/22 08:53:26;;;;;;;;;;;;;;;25.02;97.69;97394.34;5027682;28;19947;-81
2022/06/22 08:56:01;;;;;;;;;;;;;;;25.80;90.76;97394.53;5033515;28;20011;-80
2022/06/22 08:58:46;;;;;;;;;;;;;;;25.44;93.61;97398.78;5030594;28;20331;-80
2022/06/22 09:01:17;;;;;;;;;;;;;;;25.45;94.29;97401.13;5023657;28;19941;-80
2022/06/22 09:04:06;;;;;;;;;;;;;;;25.38;96.12;97406.50;5038858;28;19963;-81
2022/06/22 09:06:40;;;;;;;;;;;;;;;25.24;99.13;97407.13;5038331;28;19935;-79
2022/06/22 09:09:21;;;;;;;;;;;;;;;25.05;100.00;97398.28;5016497;28;20022;-80
2022/06/22 09:11:55;;;;;;;;;;;;;;;25.18;98.88;97402.34;5031018;28;20281;-81
2022/06/22 09:14:40;;;;;;;;;;;;;;;25.51;96.58;97402.41;5030201;28;20456;-82
2022/06/22 09:17:21;;;;;;;;;;;;;;;25.59;96.89;97398.59;5012739;28;20644;-81
2022/06/22 09:19:59;;;;;;;;;;;;;;;25.31;100.00;97405.66;5034967;28;19935;-81
2022/06/22 09:22:32;;;;;;;;;;;;;;;25.28;100.00;97411.84;5038887;28;20041;-81
2022/06/22 09:25:02;;;;;;;;;;;;;;;25.30;100.00;97399.38;5015466;28;19929;-81
2022/06/22 09:27:36;;;;;;;;;;;;;;;25.40;100.00;97412.41;5024216;28;19952;-81
2022/06/22 09:30:11;;;;;;;;;;;;;;;25.28;100.00;97411.84;5031636;28;19939;-82
2022/06/22 09:32:53;;;;;;;;;;;;;;;25.52;100.00;97423.13;5030320;28;20027;-80
2022/06/22 09:35:30;;;;;;;;;;;;;;;26.18;92.67;97418.81;5025358;28;20044;-82
2022/06/22 09:38:12;;;;;;;;;;;;;;;26.36;95.16;97417.03;5024657;28;19925;-79
2022/06/22 09:40:51;;;;;;;;;;;;;;;25.89;100.00;97427.84;5033554;28;20053;-81
2022/06/22 09:43:31;;;;;;;;;;;;;;;26.12;97.33;97423.78;5028102;28;20152;-80
2022/06/22 09:46:06;;;;;;;;;;;;;;;26.25;96.63;97427.06;5029852;28;19947;-81
2022/06/22 09:48:48;;;;;;;;;;;;;;;25.85;100.00;97421.53;5018753;28;20129;-80
2022/06/22 09:51:27;;;;;;;;;;;;;;;26.21;94.65;97421.56;5013701;28;19962;-81
2022/06/22 09:54:06;;;;;;;;;;;;;;;26.48;91.96;97422.22;5037925;28;19933;-80
2022/06/22 09:56:44;;;;;;;;;;;;;;;26.89;88.83;97428.44;5027948;28;19950;-82
2022/06/22 09:59:18;;;;;;;;;;;;;;;27.05;90.21;97428.16;5021607;28;19928;-81
2022/06/22 10:01:49;;;;;;;;;;;;;;;26.57;94.78;97419.94;5036312;28;19925;-79
2022/06/22 10:04:34;;;;;;;;;;;;;;;26.25;99.50;97427.06;5034124;28;19925;-81
2022/06/22 10:07:12;;;;;;;;;;;;;;;26.33;96.66;97423.25;5021391;28;19932;-83
2022/06/22 10:09:46;;;;;;;;;;;;;;;26.52;96.26;97424.97;5038549;28;20017;-80
2022/06/22 10:12:20;;;;;;;;;;;;;;;26.74;92.51;97426.69;5008097;28;20337;-81
2022/06/22 10:14:56;;;;;;;;;;;;;;;26.66;98.02;97423.13;5036913;28;19932;-81
2022/06/22 10:17:31;;;;;;;;;;;;;;;26.55;98.10;97419.53;5029020;28;20481;-81
2022/06/22 10:20:05;;;;;;;;;;;;;;;26.31;100.00;97417.34;5020679;28;19924;-81
2022/06/22 10:22:46;;;;;;;;;;;;;;;26.09;100.00;97421.03;5034819;28;19990;-81
2022/06/22 10:25:30;;;;;;;;;;;;;;;26.10;100.00;97422.59;5030227;28;19929;-82
2022/06/22 10:28:10;;;;;;;;;;;;;;;26.50;95.97;97432.78;5022446;28;19932;-81
2022/06/22 10:30:47;;;;;;;;;;;;;;;26.71;92.87;97431.00;5035236;28;19936;-81
2022/06/22 10:33:29;;;;;;;;;;;;;;;26.88;92.76;97431.53;5031713;28;19929;-81
2022/06/22 10:36:16;;;;;;;;;;;;;;;27.00;92.04;97425.75;5020559;28;20025;-81
2022/06/22 10:39:01;;;;;;;;;;;;;;;27.03;91.61;97431.25;5021345;28;20078;-82
2022/06/22 10:47:21;;;;;;;;;;;;;;;27.08;91.01;97430.13;5028947;28;19925;-81
2022/06/22 10:49:58;;;;;;;;;;;;;;;27.04;95.02;97430.09;5029503;28;19925;-81
2022/06/22 10:52:46;;;;;;;;;;;;;;;26.68;95.52;97437.22;5034370;28;19937;-81
2022/06/22 10:55:21;;;;;;;;;;;;;;;26.71;96.94;97432.94;5013875;28;20044;-81
2022/06/22 10:58:05;;;;;;;;;;;;;;;26.73;95.49;97436.91;5013287;28;19925;-83
2022/06/22 11:00:39;;;;;;;;;;;;;;;26.76;94.98;97429.88;5024411;28;19929;-81
2022/06/22 11:03:24;;;;;;;;;;;;;;;26.87;93.83;97433.50;5032223;28;20042;-82
2022/06/22 11:06:06;;;;;;;;;;;;;;;26.99;92.45;97435.91;5025217;28;19925;-81
2022/06/22 11:08:41;;;;;;;;;;;;;;;26.93;93.93;97431.16;5023542;28;19993;-81
2022/06/22 11:11:17;;;;;;;;;;;;;;;26.99;95.45;97432.38;5033656;28;19928;-80
2022/06/22 11:13:51;;;;;;;;;;;;;;;27.01;96.92;97424.59;5039877;28;19986;-82
2022/06/22 11:16:31;;;;;;;;;;;;;;;27.06;100.00;97408.56;5029229;28;20109;-82
2022/06/22 11:19:10;;;;;;;;;;;;;;;26.90;100.00;97408.06;5035636;28;20274;-81
2022/06/22 11:21:49;;;;;;;;;;;;;;;26.22;100.00;97397.72;5036230;28;19940;-80
2022/06/22 11:24:36;;;;;;;;;;;;;;;26.26;100.00;97395.81;5026557;28;19925;-81
2022/06/22 11:32:57;;;;;;;;;;;;;;;26.09;100.00;97391.69;5028774;28;19952;-82
2022/06/22 11:35:33;;;;;;;;;;;;;;;26.03;100.00;97384.22;5028226;28;20016;-81
2022/06/22 11:38:09;;;;;;;;;;;;;;;26.19;100.00;97385.56;5024594;28;20396;-82
2022/06/22 11:40:44;;;;;;;;;;;;;;;26.50;100.00;97389.75;5028151;28;19929;-80
2022/06/22 11:43:26;;;;;;;;;;;;;;;26.69;100.00;97384.03;5031837;28;19928;-81
2022/06/22 11:45:59;;;;;;;;;;;;;;;26.73;100.00;97393.06;5023519;28;19935;-82
2022/06/22 11:48:46;;;;;;;;;;;;;;;26.83;98.71;97397.06;5020405;28;19929;-81
2022/06/22 11:51:27;;;;;;;;;;;;;;;26.88;98.25;97404.13;5034216;28;19933;-80
2022/06/22 11:54:05;;;;;;;;;;;;;;;26.91;99.08;97412.38;5022782;28;20134;-81
2022/06/22 11:56:37;;;;;;;;;;;;;;;26.87;99.15;97414.31;5030980;28;19997;-82
2022/06/22 11:59:12;;;;;;;;;;;;;;;26.77;100.00;97407.56;5033769;28;19935;-80
2022/06/22 12:01:52;;;;;;;;;;;;;;;26.87;97.30;97408.03;5034981;28;19933;-81
2022/06/22 12:04:26;;;;;;;;;;;;;;;26.77;100.00;97410.28;5019412;28;19929;-82
2022/06/22 12:07:03;;;;;;;;;;;;;;;26.86;99.70;97403.75;5035998;28;19924;-81
2022/06/22 12:09:39;;;;;;;;;;;;;;;26.96;100.00;97403.00;5037863;28;19937;-81
2022/06/22 12:12:32;;;;;;;;;;;;;;;26.85;99.21;97400.22;5027724;28;19950;-81
2022/06/22 12:15:09;;;;;;;;;;;;;;;26.55;100.00;97400.38;4993875;28;20577;-81
2022/06/22 12:17:43;;;;;;;;;;;;;;;26.56;100.00;97410.13;5031052;28;19924;-81
2022/06/22 12:20:17;;;;;;;;;;;;;;;26.58;100.00;97405.09;5026189;28;19979;-80
2022/06/22 12:22:54;;;;;;;;;;;;;;;26.62;100.00;97410.56;5011700;28;19972;-81
2022/06/22 12:25:31;;;;;;;;;;;;;;;26.59;100.00;97414.06;5022466;28;19929;-82
2022/06/22 12:28:05;;;;;;;;;;;;;;;26.78;100.00;97405.59;5014709;28;19998;-83
2022/06/22 12:30:39;;;;;;;;;;;;;;;26.88;100.00;97410.41;5008710;28;20019;-83
2022/06/22 12:33:09;;;;;;;;;;;;;;;27.03;100.00;97411.28;5036984;28;19928;-82
2022/06/22 12:35:40;;;;;;;;;;;;;;;27.05;100.00;97401.50;5034751;28;19925;-82
2022/06/22 12:38:15;;;;;;;;;;;;;;;26.79;100.00;97407.19;5022526;28;20154;-81
2022/06/22 12:40:48;;;;;;;;;;;;;;;26.64;100.00;97411.78;5024050;28;20442;-81
2022/06/22 12:43:25;;;;;;;;;;;;;;;26.69;100.00;97397.72;5029238;28;19925;-81
2022/06/22 12:45:53;;;;;;;;;;;;;;;26.86;100.00;97401.78;5012540;28;19943;-82
2022/06/22 12:48:30;;;;;;;;;;;;;;;26.98;98.26;97404.22;5016700;28;20701;-81
2022/06/22 12:51:06;;;;;;;;;;;;;;;27.09;100.00;97402.31;5029981;28;20155;-82
2022/06/22 12:53:37;;;;;;;;;;;;;;;26.87;100.00;97397.06;5032803;28;20354;-81
2022/06/22 12:56:06;;;;;;;;;;;;;;;26.95;100.00;97393.22;5031346;28;20824;-81
2022/06/22 12:58:36;;;;;;;;;;;;;;;27.14;98.20;97390.22;5028569;28;19929;-84
2022/06/22 13:01:04;;;;;;;;;;;;;;;27.29;97.14;97397.34;5031296;28;19929;-81
2022/06/22 13:03:33;;;;;;;;;;;;;;;27.18;98.61;97393.75;5028905;28;19932;-81
2022/06/22 13:06:00;;;;;;;;;;;;;;;26.95;100.00;97387.75;5029084;28;19929;-81
2022/06/22 13:08:28;;;;;;;;;;;;;;;26.89;100.00;97378.31;5037042;28;20376;-82
2022/06/22 13:10:59;;;;;;;;;;;;;;;26.92;100.00;97374.81;5039891;28;19967;-81
2022/06/22 13:13:30;;;;;;;;;;;;;;;26.85;100.00;97374.75;5041601;28;19987;-81
2022/06/22 13:15:58;;;;;;;;;;;;;;;26.69;100.00;97370.34;5039708;28;19967;-82
2022/06/22 13:18:29;;;;;;;;;;;;;;;26.57;100.00;97380.81;5036880;28;19929;-82
2022/06/22 13:20:59;;;;;;;;;;;;;;;26.89;100.00;97381.06;5023104;28;20340;-81
2022/06/22 13:23:37;;;;;;;;;;;;;;;27.03;100.00;97370.16;5017895;28;19960;-82
2022/06/22 13:26:11;;;;;;;;;;;;;;;27.11;100.00;97374.53;5032001;28;20139;-81
2022/06/22 13:28:42;;;;;;;;;;;;;;;27.34;98.13;97369.53;5024209;28;19940;-82
2022/06/22 13:31:12;;;;;;;;;;;;;;;27.41;98.83;97377.00;5029866;28;19963;-81
2022/06/22 13:33:43;;;;;;;;;;;;;;;27.42;98.66;97373.88;5030268;28;19932;-81